Seymour Johnson Air Force Base
KGSB : now visible

Airfield :











YOU CAN JOIN US ON...

 
LOGIN :

Register | Disclaimer

   EN    FR    IT 

 









Legend :    VFR   Marginal VFR   IFR   Intensive IFR   Very Intensive IFR
Visi :
Ceiling :
>= 8 km
>= 3000ft
5 to 8 km
1000 to 3000 ft
1500m to 5 km
500 to 1000 ft
800 to 1500m
200 to 500 ft
< 800m
< 200 ft
Symbols :   Thunderstorms  Fog  Heavy snow  Heavy precipitations  Wind > 20 kt







- Airport Elevation : 109 ft


KGSB - Seymour Johnson Air Force Base

CURRENT METAR :
  • 160856Z AUTO 22003KT 10SM OVC039 15/12 A2975 RMK AO2 SLP077 60000 T01460119 58013 $

EXPIRED METARs :
  • 160756Z AUTO 23006KT 10SM BKN080 BKN090 15/12 A2978 RMK AO2 SLP087 T01480116 $
  • 160656Z AUTO 22007KT 10SM BKN085 15/12 A2978 RMK AO2 RAB36E53 SLP087 P0000
  • 160636Z AUTO 22005KT 10SM -RA FEW090 15/12 A2979 RMK AO2 RAB36 SLP090 $

TAF TAF KGSB
Valid from the 15 at 21:00 until the 17 at 03:00 UTC


152100Z 1521/1703 22010G15KT 9999 SCT045 BKN200 QNH2977INS
BECMG 1601/1602 23008KT 6000 -SHRA OVC020 QNH2976INS
BECMG 1613/1614 03012G18KT 4800 -SHRA OVC010 QNH2976INS
BECMG 1620/1621 05010KT 9999 NSW OVC025 QNH2976INS TX22/1521Z TN12/1612Z LAST NO AMDS AFT 1522 NEXT 1821
KZDC FIR / North America



MET'MAP, your aeronautical weather chart ! - Copyright ORBIFLY December 2007 - Disclaimer

ORBIFLY MET'MAP TEAM :

Programming & Development : Alexandra Zaïnal
Concept & Development : Baudouin d'Aumeries
Co-Development & Prog : Marc-Olivier Méhu
Technical & hardware support : Manuel Goepfert

Contact : metmap@orbifly.com




SOURCES & CREDITS :

   NOAA       Earth
Advisory